Time;durP1;ratioP1;P1;durP2;ratioP2;P2;SDS_P1;SDS_P2;PMS_P1;PMS_P2;Temp;Humidity;BMP_temperature;BMP_pressure;BME280_temperature;BME280_humidity;BME280_pressure;Samples;Min_cycle;Max_cycle;Signal;HPM_P1;HPM_P2
2022/01/06 00:02:04;;;;;;;;;;;;;;;3.89;89.43;100729.66;5011452;28;19908;-69
2022/01/06 00:04:29;;;;;;;;;;;;;;;3.82;89.37;100725.72;5016973;27;20213;-70
2022/01/06 00:06:54;;;;;;;;;;;;;;;3.73;89.72;100719.25;5031436;27;20256;-69
2022/01/06 00:09:21;;;;;;;;;;;;;;;3.73;89.37;100729.72;5037951;27;20835;-70
2022/01/06 00:11:46;;;;;;;;;;;;;;;3.69;89.90;100720.38;5036086;27;19903;-68
2022/01/06 00:14:22;;;;;;;;;;;;;;;3.61;89.55;100723.47;5030350;28;19959;-69
2022/01/06 00:24:45;;;;;;;;;;;;;;;3.64;89.75;100735.53;5035839;28;19914;-69
2022/01/06 00:27:10;;;;;;;;;;;;;;;3.65;89.93;100742.44;5031416;27;19908;-68
2022/01/06 00:29:36;;;;;;;;;;;;;;;3.66;89.15;100744.13;5017331;28;20227;-68
2022/01/06 00:32:01;;;;;;;;;;;;;;;3.65;89.50;100742.44;5006826;28;19908;-69
2022/01/06 00:34:26;;;;;;;;;;;;;;;3.62;89.15;100750.47;5016611;28;19929;-69
2022/01/06 00:36:51;;;;;;;;;;;;;;;3.59;89.16;100750.66;5024864;27;20342;-68
2022/01/06 00:39:17;;;;;;;;;;;;;;;3.56;89.56;100751.66;5033230;28;19907;-68
2022/01/06 00:41:42;;;;;;;;;;;;;;;3.55;89.73;100754.38;5033962;27;19997;-70
2022/01/06 00:44:07;;;;;;;;;;;;;;;3.51;89.18;100755.50;5037114;27;19956;-71
2022/01/06 00:46:32;;;;;;;;;;;;;;;3.47;89.75;100761.84;5031276;27;20040;-69
2022/01/06 00:48:57;;;;;;;;;;;;;;;3.47;89.32;100767.06;5035986;27;19907;-70
2022/01/06 00:51:23;;;;;;;;;;;;;;;3.53;89.81;100770.19;5032232;27;19911;-70
2022/01/06 00:53:48;;;;;;;;;;;;;;;3.52;89.95;100762.41;5036543;27;19944;-68
2022/01/06 00:56:13;;;;;;;;;;;;;;;3.60;89.05;100768.03;5035465;27;19922;-69
2022/01/06 00:58:38;;;;;;;;;;;;;;;3.47;89.50;100765.31;5035542;27;19948;-70
2022/01/06 01:01:03;;;;;;;;;;;;;;;3.68;89.11;100780.66;5034700;27;20008;-69
2022/01/06 01:03:29;;;;;;;;;;;;;;;3.60;89.21;100775.91;5034053;27;19899;-71
2022/01/06 01:05:55;;;;;;;;;;;;;;;3.58;89.35;100786.47;5034455;27;20016;-69
2022/01/06 01:08:20;;;;;;;;;;;;;;;3.65;88.85;100784.28;5031830;27;20314;-69
2022/01/06 01:10:46;;;;;;;;;;;;;;;3.70;88.79;100790.09;5041334;27;20012;-70
2022/01/06 01:13:13;;;;;;;;;;;;;;;3.75;88.95;100782.84;5022100;27;19904;-69
2022/01/06 01:15:49;;;;;;;;;;;;;;;3.78;88.20;100793.13;4994044;28;19916;-69
2022/01/06 01:18:18;;;;;;;;;;;;;;;3.60;87.82;100787.19;5011318;28;19908;-70
2022/01/06 01:20:43;;;;;;;;;;;;;;;3.67;88.46;100790.28;5010570;28;19912;-69
2022/01/06 01:23:09;;;;;;;;;;;;;;;3.69;88.47;100788.41;5018612;27;20430;-69
2022/01/06 01:25:34;;;;;;;;;;;;;;;3.76;87.35;100788.91;5014109;27;19930;-69
2022/01/06 01:27:59;;;;;;;;;;;;;;;3.74;86.39;100796.84;5016759;27;19904;-68
2022/01/06 01:30:38;;;;;;;;;;;;;;;3.71;87.60;100786.56;5016869;27;19912;-70
2022/01/06 01:33:03;;;;;;;;;;;;;;;3.70;87.82;100784.88;5018125;27;19900;-69
2022/01/06 01:35:31;;;;;;;;;;;;;;;3.76;86.93;100794.13;5013716;27;20025;-69
2022/01/06 01:37:57;;;;;;;;;;;;;;;3.72;86.67;100790.88;5039942;27;20318;-71
2022/01/06 01:40:22;;;;;;;;;;;;;;;3.93;85.57;100796.59;5036744;27;19916;-70
2022/01/06 01:42:47;;;;;;;;;;;;;;;3.80;85.30;100802.66;5035297;27;20344;-69
2022/01/06 01:45:12;;;;;;;;;;;;;;;3.72;85.87;100803.97;5050130;27;19964;-68
2022/01/06 01:47:44;;;;;;;;;;;;;;;3.62;85.45;100813.25;5034286;27;20000;-70
2022/01/06 01:50:15;;;;;;;;;;;;;;;3.60;85.73;100807.28;5056538;27;20286;-71
2022/01/06 01:52:41;;;;;;;;;;;;;;;3.60;85.69;100813.34;5055103;27;20087;-71
2022/01/06 01:55:06;;;;;;;;;;;;;;;3.63;85.50;100811.50;5063962;27;19979;-71
2022/01/06 01:57:32;;;;;;;;;;;;;;;3.50;85.83;100813.97;5031682;27;20008;-70
2022/01/06 01:59:57;;;;;;;;;;;;;;;3.43;85.98;100811.72;5051410;27;20359;-70
2022/01/06 02:02:23;;;;;;;;;;;;;;;3.39;85.79;100810.22;5073543;27;19914;-70
2022/01/06 02:04:52;;;;;;;;;;;;;;;3.46;85.93;100815.13;5052524;27;20526;-70
2022/01/06 02:07:17;;;;;;;;;;;;;;;3.35;85.66;100816.56;5040839;27;19903;-70
2022/01/06 02:09:42;;;;;;;;;;;;;;;3.42;85.86;100823.13;5055037;27;20146;-69
2022/01/06 02:12:09;;;;;;;;;;;;;;;3.33;85.49;100821.06;5053458;27;19903;-70
2022/01/06 02:14:35;;;;;;;;;;;;;;;3.32;85.92;100827.19;5055052;27;20669;-70
2022/01/06 02:17:00;;;;;;;;;;;;;;;3.22;85.75;100820.81;5054030;27;19907;-69
2022/01/06 02:19:26;;;;;;;;;;;;;;;3.23;86.43;100827.75;5055163;27;20710;-70
2022/01/06 02:21:51;;;;;;;;;;;;;;;3.30;86.61;100829.06;5040245;27;20408;-69
2022/01/06 02:24:17;;;;;;;;;;;;;;;3.25;86.61;100828.50;5036443;27;19948;-70
2022/01/06 02:26:42;;;;;;;;;;;;;;;3.26;87.33;100828.41;5036403;27;19948;-70
2022/01/06 02:29:08;;;;;;;;;;;;;;;3.33;86.75;100828.91;5051804;27;19914;-70
2022/01/06 02:31:43;;;;;;;;;;;;;;;3.36;86.99;100833.94;5054813;27;20771;-70
2022/01/06 02:34:08;;;;;;;;;;;;;;;3.41;86.77;100834.53;5055775;27;20003;-69
2022/01/06 02:36:34;;;;;;;;;;;;;;;3.48;86.53;100834.16;5050834;27;19982;-70
2022/01/06 02:38:59;;;;;;;;;;;;;;;3.49;85.71;100830.63;5054374;27;20718;-70
2022/01/06 02:41:25;;;;;;;;;;;;;;;3.42;86.22;100832.75;5055919;27;19948;-69
2022/01/06 02:43:50;;;;;;;;;;;;;;;3.52;85.77;100839.13;5021912;27;20019;-70
2022/01/06 02:46:15;;;;;;;;;;;;;;;3.53;85.07;100834.75;5053940;27;19911;-70
2022/01/06 02:48:40;;;;;;;;;;;;;;;3.38;85.79;100836.47;5035000;27;19903;-70
2022/01/06 02:51:06;;;;;;;;;;;;;;;3.47;86.03;100841.19;5032141;27;19904;-69
2022/01/06 02:53:31;;;;;;;;;;;;;;;3.45;85.83;100837.78;5033889;27;19948;-70
2022/01/06 02:55:56;;;;;;;;;;;;;;;3.55;85.79;100840.72;5034668;27;20647;-69
2022/01/06 02:58:21;;;;;;;;;;;;;;;3.55;85.20;100840.72;5031476;27;20130;-70
2022/01/06 03:00:47;;;;;;;;;;;;;;;3.50;85.14;100853.22;5030292;27;19929;-69
2022/01/06 03:03:12;;;;;;;;;;;;;;;3.57;84.50;100851.97;5030822;27;20268;-70
2022/01/06 03:05:37;;;;;;;;;;;;;;;3.56;84.64;100860.75;5035972;27;19936;-69
2022/01/06 03:08:02;;;;;;;;;;;;;;;3.60;85.17;100857.00;5056849;27;20023;-70
2022/01/06 03:10:30;;;;;;;;;;;;;;;3.49;84.87;100860.25;5054473;27;19948;-69
2022/01/06 03:12:55;;;;;;;;;;;;;;;3.48;84.82;100860.31;5053802;27;19986;-68
2022/01/06 03:15:21;;;;;;;;;;;;;;;3.42;84.41;100872.81;5034451;27;19926;-70
2022/01/06 03:17:47;;;;;;;;;;;;;;;3.49;84.62;100875.09;5054331;27;19903;-69
2022/01/06 03:20:13;;;;;;;;;;;;;;;3.57;84.02;100878.13;5014247;27;20257;-68
2022/01/06 03:22:38;;;;;;;;;;;;;;;3.50;84.50;100882.00;5054539;27;19900;-68
2022/01/06 03:25:04;;;;;;;;;;;;;;;3.51;84.45;100868.84;5051692;27;20316;-69
2022/01/06 03:27:29;;;;;;;;;;;;;;;3.41;84.58;100879.00;5034826;27;20836;-68
2022/01/06 03:29:54;;;;;;;;;;;;;;;3.40;84.62;100877.31;5055224;27;19991;-67
2022/01/06 03:32:20;;;;;;;;;;;;;;;3.39;84.05;100880.84;5036798;27;19903;-69
2022/01/06 03:34:45;;;;;;;;;;;;;;;3.34;84.13;100882.91;5034136;27;19930;-67
2022/01/06 03:37:10;;;;;;;;;;;;;;;3.29;84.04;100884.91;5033220;27;19907;-68
2022/01/06 03:39:35;;;;;;;;;;;;;;;3.21;84.76;100887.94;5031162;27;20817;-67
2022/01/06 03:42:00;;;;;;;;;;;;;;;3.22;85.24;100883.59;5048557;27;20222;-68
2022/01/06 03:44:26;;;;;;;;;;;;;;;3.34;85.05;100882.91;5033292;28;19960;-67
2022/01/06 03:46:53;;;;;;;;;;;;;;;3.28;85.35;100882.41;5016445;28;20023;-68
2022/01/06 03:49:18;;;;;;;;;;;;;;;3.30;85.35;100886.63;5033470;28;20413;-68
2022/01/06 03:51:43;;;;;;;;;;;;;;;3.23;85.09;100882.66;5011594;28;20746;-68
2022/01/06 03:54:08;;;;;;;;;;;;;;;3.24;85.32;100886.94;5033439;28;20685;-71
2022/01/06 03:56:34;;;;;;;;;;;;;;;3.30;85.68;100890.97;5013597;28;19919;-69
2022/01/06 03:58:59;;;;;;;;;;;;;;;3.29;85.44;100890.16;5031404;28;19910;-68
2022/01/06 04:01:24;;;;;;;;;;;;;;;3.23;85.28;100891.34;5033910;28;19911;-69
2022/01/06 04:03:49;;;;;;;;;;;;;;;3.24;85.10;100903.50;5031507;28;19959;-69
2022/01/06 04:06:15;;;;;;;;;;;;;;;3.35;84.99;100909.88;5034460;28;20016;-67
2022/01/06 04:08:40;;;;;;;;;;;;;;;3.46;83.98;100907.50;5016110;28;19908;-69
2022/01/06 04:11:06;;;;;;;;;;;;;;;3.30;84.33;100911.91;5027506;27;19908;-68
2022/01/06 04:13:32;;;;;;;;;;;;;;;3.20;84.26;100907.22;5029473;28;19907;-70
2022/01/06 04:15:59;;;;;;;;;;;;;;;3.24;84.56;100908.72;5012755;27;20363;-70
2022/01/06 04:18:24;;;;;;;;;;;;;;;3.18;84.82;100922.13;5017743;27;19945;-69
2022/01/06 04:20:50;;;;;;;;;;;;;;;3.21;84.72;100928.97;5033609;27;20012;-70
2022/01/06 04:23:15;;;;;;;;;;;;;;;3.16;84.89;100928.34;5036748;27;19912;-69
2022/01/06 04:25:40;;;;;;;;;;;;;;;3.18;85.02;100931.75;5032720;27;19997;-70
2022/01/06 04:28:05;;;;;;;;;;;;;;;3.13;85.31;100931.16;5017496;27;19983;-70
2022/01/06 04:30:30;;;;;;;;;;;;;;;3.11;85.44;100941.69;5032756;27;19965;-68
2022/01/06 04:32:56;;;;;;;;;;;;;;;3.13;85.57;100941.59;5017474;27;19907;-70
2022/01/06 04:35:21;;;;;;;;;;;;;;;3.21;85.26;100944.66;5032929;27;19920;-70
2022/01/06 04:37:46;;;;;;;;;;;;;;;3.24;84.90;100947.97;5036460;27;19911;-69
2022/01/06 04:40:11;;;;;;;;;;;;;;;3.16;84.79;100959.75;5032818;27;19918;-70
2022/01/06 04:42:37;;;;;;;;;;;;;;;3.11;84.72;100954.78;5036574;27;19903;-70
2022/01/06 04:45:03;;;;;;;;;;;;;;;3.06;84.89;100960.25;5046667;27;20433;-69
2022/01/06 04:47:28;;;;;;;;;;;;;;;3.01;84.83;100959.66;5054823;27;20768;-70
2022/01/06 04:49:53;;;;;;;;;;;;;;;3.04;85.11;100956.03;5055240;27;19911;-69
2022/01/06 04:52:18;;;;;;;;;;;;;;;2.99;84.71;100971.97;5034863;27;19910;-70
2022/01/06 04:54:43;;;;;;;;;;;;;;;2.97;85.23;100965.97;5055450;27;19899;-68
2022/01/06 04:57:09;;;;;;;;;;;;;;;2.97;84.96;100968.59;5035399;27;19907;-69
2022/01/06 04:59:34;;;;;;;;;;;;;;;2.95;85.24;100970.44;5056180;27;19907;-68
2022/01/06 05:01:59;;;;;;;;;;;;;;;2.98;84.82;100980.72;5053620;27;19903;-69
2022/01/06 05:04:24;;;;;;;;;;;;;;;2.88;84.55;100969.09;5056467;27;20955;-69
2022/01/06 05:06:53;;;;;;;;;;;;;;;2.84;84.85;100975.41;5036352;27;19914;-71
2022/01/06 05:09:18;;;;;;;;;;;;;;;2.84;84.60;100975.41;5035610;27;19914;-70
2022/01/06 05:11:43;;;;;;;;;;;;;;;2.82;84.68;100978.09;5040967;27;19911;-71
2022/01/06 05:14:09;;;;;;;;;;;;;;;2.74;84.80;100977.66;5035105;27;19950;-70
2022/01/06 05:16:34;;;;;;;;;;;;;;;2.71;85.20;100983.88;5056860;27;19919;-71
2022/01/06 05:18:59;;;;;;;;;;;;;;;2.66;85.32;100985.88;5030896;27;19972;-71
2022/01/06 05:21:29;;;;;;;;;;;;;;;2.66;85.14;100983.25;5035816;27;19968;-71
2022/01/06 05:23:54;;;;;;;;;;;;;;;2.63;85.01;100988.66;5036389;27;19914;-70
2022/01/06 05:26:19;;;;;;;;;;;;;;;2.65;84.94;100997.28;5034892;27;19908;-70
2022/01/06 05:28:45;;;;;;;;;;;;;;;2.50;84.10;100991.06;5033206;27;19910;-70
2022/01/06 05:31:11;;;;;;;;;;;;;;;2.45;84.78;100998.28;5036815;27;19900;-69
2022/01/06 05:33:36;;;;;;;;;;;;;;;2.40;84.90;100995.06;5034970;27;19907;-70
2022/01/06 05:36:01;;;;;;;;;;;;;;;2.39;85.23;101001.22;5041409;27;20043;-70
2022/01/06 05:38:26;;;;;;;;;;;;;;;2.43;85.53;101004.53;5051089;27;19918;-70
2022/01/06 05:40:52;;;;;;;;;;;;;;;2.36;85.62;101010.03;5054361;27;19907;-71
2022/01/06 05:43:19;;;;;;;;;;;;;;;2.32;85.21;101015.50;5046101;27;19915;-72
2022/01/06 05:45:45;;;;;;;;;;;;;;;2.23;85.96;101016.81;5012844;27;20843;-71
2022/01/06 05:48:10;;;;;;;;;;;;;;;2.17;86.56;101014.50;5041605;27;20215;-68
2022/01/06 05:50:35;;;;;;;;;;;;;;;2.33;86.67;101020.66;5054604;27;19910;-70
2022/01/06 05:53:00;;;;;;;;;;;;;;;2.32;86.71;101023.34;5075926;27;20603;-70
2022/01/06 05:55:25;;;;;;;;;;;;;;;2.36;86.51;101022.25;5053313;27;20037;-70
2022/01/06 05:57:51;;;;;;;;;;;;;;;2.35;86.14;101031.84;5053904;27;19903;-69
2022/01/06 06:00:16;;;;;;;;;;;;;;;2.42;86.05;101028.94;5071324;27;19917;-69
2022/01/06 06:02:41;;;;;;;;;;;;;;;2.40;85.89;101040.31;5050589;27;20757;-67
2022/01/06 06:05:06;;;;;;;;;;;;;;;2.43;86.06;101041.94;5072801;27;19912;-70
2022/01/06 06:07:32;;;;;;;;;;;;;;;2.45;85.45;101058.34;5058328;27;19971;-71
2022/01/06 06:09:57;;;;;;;;;;;;;;;2.41;85.73;101062.03;5054623;27;19915;-70
2022/01/06 06:12:22;;;;;;;;;;;;;;;2.36;85.70;101061.44;5033188;27;19970;-69
2022/01/06 06:14:47;;;;;;;;;;;;;;;2.37;85.70;101061.34;5035579;27;20266;-68
2022/01/06 06:17:13;;;;;;;;;;;;;;;2.35;85.92;101059.75;5055170;27;20028;-70
2022/01/06 06:19:38;;;;;;;;;;;;;;;2.38;85.53;101060.44;5053326;27;20077;-68
2022/01/06 06:22:04;;;;;;;;;;;;;;;2.33;84.99;101066.81;5032288;27;19914;-70
2022/01/06 06:24:29;;;;;;;;;;;;;;;2.25;84.84;101075.00;5055565;27;20626;-69
2022/01/06 06:26:54;;;;;;;;;;;;;;;2.29;84.49;101073.94;5034516;27;19907;-70
2022/01/06 06:29:19;;;;;;;;;;;;;;;2.20;84.55;101084.81;5055277;27;19937;-70
2022/01/06 06:31:45;;;;;;;;;;;;;;;2.06;85.17;101086.34;5017160;27;20333;-71
2022/01/06 06:34:11;;;;;;;;;;;;;;;2.11;85.56;101083.50;5035527;27;19967;-70
2022/01/06 06:36:36;;;;;;;;;;;;;;;2.01;85.66;101088.31;5051401;27;19923;-70
2022/01/06 06:39:01;;;;;;;;;;;;;;;1.99;85.36;101090.19;5033074;27;19930;-69
2022/01/06 06:41:26;;;;;;;;;;;;;;;1.86;85.10;101094.25;5012214;27;19939;-69
2022/01/06 06:43:52;;;;;;;;;;;;;;;1.85;85.95;101097.81;5049580;27;19907;-69
2022/01/06 06:46:17;;;;;;;;;;;;;;;1.74;85.83;101094.88;5032556;27;19919;-68
2022/01/06 06:48:42;;;;;;;;;;;;;;;1.54;86.31;101087.03;5052163;27;19907;-70
2022/01/06 06:51:07;;;;;;;;;;;;;;;1.44;86.38;101090.97;5034647;27;19903;-70
2022/01/06 06:53:32;;;;;;;;;;;;;;;1.42;86.75;101082.34;5052516;27;19907;-70
2022/01/06 06:55:58;;;;;;;;;;;;;;;1.47;86.92;101092.59;5053291;27;20504;-69
2022/01/06 06:58:23;;;;;;;;;;;;;;;1.41;86.67;101098.94;5049881;27;19915;-70
2022/01/06 07:00:48;;;;;;;;;;;;;;;1.31;87.13;101098.50;5053798;27;20448;-70
2022/01/06 07:03:14;;;;;;;;;;;;;;;1.30;87.06;101104.63;5053477;27;20015;-70
2022/01/06 07:05:39;;;;;;;;;;;;;;;1.28;87.58;101109.03;5054662;27;20370;-70
2022/01/06 07:08:04;;;;;;;;;;;;;;;1.30;87.73;101122.88;5049649;27;19907;-69
2022/01/06 07:10:29;;;;;;;;;;;;;;;1.30;87.31;101129.88;5030898;27;19949;-70
2022/01/06 07:12:55;;;;;;;;;;;;;;;1.29;87.60;101131.59;5029287;27;19952;-69
2022/01/06 07:15:20;;;;;;;;;;;;;;;1.30;87.32;101137.69;5048537;27;20100;-69
2022/01/06 07:17:45;;;;;;;;;;;;;;;1.31;88.04;101144.56;5028122;27;20024;-72
2022/01/06 07:20:10;;;;;;;;;;;;;;;1.32;87.73;101141.91;5031099;27;19903;-72
2022/01/06 07:22:36;;;;;;;;;;;;;;;1.28;87.46;101135.13;5032376;27;19972;-70
2022/01/06 07:25:01;;;;;;;;;;;;;;;1.31;87.52;101149.78;5012125;27;20167;-69
2022/01/06 07:27:26;;;;;;;;;;;;;;;1.22;87.15;101140.63;5031255;27;20368;-67
2022/01/06 07:29:52;;;;;;;;;;;;;;;1.12;87.53;101160.19;5028509;27;19961;-69
2022/01/06 07:32:17;;;;;;;;;;;;;;;1.27;87.87;101159.50;5035646;27;19907;-67
2022/01/06 07:34:42;;;;;;;;;;;;;;;1.19;87.35;101165.03;5030726;27;19941;-68
2022/01/06 07:37:07;;;;;;;;;;;;;;;1.13;87.09;101167.06;5047895;27;20189;-70
2022/01/06 07:39:32;;;;;;;;;;;;;;;1.09;87.32;101170.75;5052170;27;19911;-68
2022/01/06 07:41:58;;;;;;;;;;;;;;;1.07;87.65;101182.97;5054330;27;20112;-68
2022/01/06 07:44:23;;;;;;;;;;;;;;;1.05;87.57;101188.25;5031760;27;19923;-68
2022/01/06 07:46:48;;;;;;;;;;;;;;;0.97;87.33;101191.19;5034621;27;20123;-68
2022/01/06 07:49:14;;;;;;;;;;;;;;;0.94;87.59;101187.84;5050631;27;20498;-70
2022/01/06 07:51:39;;;;;;;;;;;;;;;0.96;87.50;101196.44;5068466;27;20836;-70
2022/01/06 07:54:04;;;;;;;;;;;;;;;0.93;87.43;101200.03;5052164;27;19930;-69
2022/01/06 07:56:29;;;;;;;;;;;;;;;0.83;87.04;101193.50;5077244;27;19919;-70
2022/01/06 07:58:55;;;;;;;;;;;;;;;0.86;87.46;101195.97;5039908;27;19914;-69
2022/01/06 08:01:20;;;;;;;;;;;;;;;0.84;87.30;101208.22;5058191;27;20160;-70
2022/01/06 08:03:45;;;;;;;;;;;;;;;0.83;87.33;101206.53;5057424;27;20023;-70
2022/01/06 08:06:11;;;;;;;;;;;;;;;0.80;87.34;101199.69;5045802;27;20738;-70
2022/01/06 08:08:36;;;;;;;;;;;;;;;0.91;87.73;101209.66;5031496;27;20750;-69
2022/01/06 08:11:01;;;;;;;;;;;;;;;0.85;87.99;101220.34;5032828;27;19911;-68
2022/01/06 08:13:26;;;;;;;;;;;;;;;1.00;87.96;101224.06;5038625;27;20400;-70
2022/01/06 08:15:52;;;;;;;;;;;;;;;0.98;87.52;101224.13;5054133;27;20080;-70
2022/01/06 08:18:17;;;;;;;;;;;;;;;0.97;87.51;101230.28;5060267;27;19915;-70
2022/01/06 08:20:42;;;;;;;;;;;;;;;0.99;87.33;101228.44;5050697;27;19918;-70
2022/01/06 08:23:08;;;;;;;;;;;;;;;1.05;87.51;101226.50;5038227;27;20477;-69
2022/01/06 08:25:33;;;;;;;;;;;;;;;1.05;87.24;101234.31;5033378;27;19911;-69
2022/01/06 08:27:59;;;;;;;;;;;;;;;0.96;86.88;101236.41;5035990;27;19979;-69
2022/01/06 08:30:24;;;;;;;;;;;;;;;1.02;86.82;101237.91;5053679;27;19944;-69
2022/01/06 08:32:49;;;;;;;;;;;;;;;0.97;87.44;101242.44;5057964;27;19986;-69
2022/01/06 08:35:14;;;;;;;;;;;;;;;1.12;87.33;101239.22;5035605;27;19967;-68
2022/01/06 08:37:39;;;;;;;;;;;;;;;1.06;86.81;101234.25;5032354;27;20846;-69
2022/01/06 08:40:05;;;;;;;;;;;;;;;1.08;86.70;101247.22;5035172;27;20835;-68
2022/01/06 08:42:30;;;;;;;;;;;;;;;1.16;86.85;101250.38;5053788;27;19904;-70
2022/01/06 08:44:55;;;;;;;;;;;;;;;1.30;86.90;101249.78;5036733;27;19926;-68
2022/01/06 08:47:21;;;;;;;;;;;;;;;1.39;86.40;101254.59;5055654;27;19899;-69
2022/01/06 08:49:46;;;;;;;;;;;;;;;1.59;86.25;101258.97;5035089;27;20150;-69
2022/01/06 08:52:11;;;;;;;;;;;;;;;1.58;86.16;101259.91;5051350;27;19976;-69
2022/01/06 08:54:36;;;;;;;;;;;;;;;1.66;85.96;101265.59;5054804;27;20279;-69
2022/01/06 08:57:01;;;;;;;;;;;;;;;1.67;85.94;101264.69;5033922;27;20020;-69
2022/01/06 08:59:27;;;;;;;;;;;;;;;1.84;85.91;101260.50;5035221;27;20240;-69
2022/01/06 09:01:52;;;;;;;;;;;;;;;1.95;86.10;101266.09;5016771;27;19944;-69
2022/01/06 09:04:20;;;;;;;;;;;;;;;2.13;85.66;101264.44;5037052;27;19964;-69
2022/01/06 09:06:45;;;;;;;;;;;;;;;2.24;85.07;101269.16;5020482;27;19918;-69
2022/01/06 09:09:11;;;;;;;;;;;;;;;2.39;84.78;101278.91;5049734;27;19986;-69
2022/01/06 09:11:36;;;;;;;;;;;;;;;2.52;84.73;101270.50;5053187;27;20145;-69
2022/01/06 09:14:01;;;;;;;;;;;;;;;2.70;84.41;101277.47;5053716;27;19926;-69
2022/01/06 09:16:26;;;;;;;;;;;;;;;2.75;84.06;101267.66;5053675;27;20040;-69
2022/01/06 09:18:52;;;;;;;;;;;;;;;2.98;83.88;101270.09;5051074;27;19952;-68
2022/01/06 09:21:22;;;;;;;;;;;;;;;3.39;83.31;101261.94;5017596;27;20738;-68
2022/01/06 09:23:47;;;;;;;;;;;;;;;3.73;82.12;101266.28;5046688;27;19911;-69
2022/01/06 09:26:12;;;;;;;;;;;;;;;4.07;80.52;101282.84;5073127;27;20330;-68
2022/01/06 09:28:38;;;;;;;;;;;;;;;4.25;80.33;101283.63;5070824;27;19974;-69
2022/01/06 09:31:03;;;;;;;;;;;;;;;4.47;79.35;101283.31;5073455;27;20231;-68
2022/01/06 09:33:28;;;;;;;;;;;;;;;4.51;78.95;101283.97;5072174;27;19909;-69
2022/01/06 09:35:54;;;;;;;;;;;;;;;4.69;77.92;101286.53;5047531;27;20410;-65
2022/01/06 09:38:19;;;;;;;;;;;;;;;4.58;77.32;101287.97;5031844;27;20306;-69
2022/01/06 09:40:45;;;;;;;;;;;;;;;4.66;77.91;101282.31;5030716;27;19940;-68
2022/01/06 09:43:13;;;;;;;;;;;;;;;5.10;77.09;101284.19;5029505;28;19903;-69
2022/01/06 09:45:38;;;;;;;;;;;;;;;5.56;75.53;101288.53;5028068;27;19919;-69
2022/01/06 09:48:04;;;;;;;;;;;;;;;5.64;74.38;101290.69;5033860;27;20183;-69
2022/01/06 09:50:29;;;;;;;;;;;;;;;5.61;74.12;101291.75;5030179;27;19908;-68
2022/01/06 09:52:54;;;;;;;;;;;;;;;5.47;73.25;101289.06;5021374;27;20894;-69
2022/01/06 09:55:21;;;;;;;;;;;;;;;5.56;73.58;101298.22;5032370;27;20858;-68
2022/01/06 09:58:00;;;;;;;;;;;;;;;6.02;72.21;101295.44;5030747;27;19973;-69
2022/01/06 10:00:26;;;;;;;;;;;;;;;6.08;71.70;101291.59;5014146;27;20648;-68
2022/01/06 10:02:51;;;;;;;;;;;;;;;5.95;71.86;101289.72;5030141;27;19914;-69
2022/01/06 10:05:17;;;;;;;;;;;;;;;5.89;71.81;101295.31;5033609;27;19992;-69
2022/01/06 10:07:42;;;;;;;;;;;;;;;5.59;72.80;101292.75;5030270;27;20199;-69
2022/01/06 10:10:11;;;;;;;;;;;;;;;5.13;73.95;101297.13;5033468;27;20923;-69
2022/01/06 10:12:39;;;;;;;;;;;;;;;5.32;73.83;101296.06;5031445;27;20382;-69
2022/01/06 10:15:13;;;;;;;;;;;;;;;5.55;72.86;101291.25;5033811;27;20363;-69
2022/01/06 10:17:39;;;;;;;;;;;;;;;5.87;72.27;101297.22;5035270;27;19900;-69
2022/01/06 10:20:08;;;;;;;;;;;;;;;6.23;72.00;101292.44;5031200;27;20009;-69
2022/01/06 10:22:42;;;;;;;;;;;;;;;6.03;70.79;101289.25;5011647;27;19908;-70
2022/01/06 10:25:07;;;;;;;;;;;;;;;5.59;71.47;101298.84;5021795;27;19904;-69
2022/01/06 10:27:32;;;;;;;;;;;;;;;5.29;73.43;101307.59;5005113;27;19910;-67
2022/01/06 10:29:57;;;;;;;;;;;;;;;5.14;74.93;101308.47;5039657;27;20010;-69
2022/01/06 10:32:26;;;;;;;;;;;;;;;4.94;75.20;101313.06;5024070;27;19903;-69
2022/01/06 10:34:52;;;;;;;;;;;;;;;4.77;76.02;101311.38;5025025;27;20915;-68
2022/01/06 10:37:18;;;;;;;;;;;;;;;4.62;77.37;101305.19;5037259;27;19915;-69
2022/01/06 10:39:43;;;;;;;;;;;;;;;4.54;77.77;101304.81;5041698;27;19922;-69
2022/01/06 10:42:09;;;;;;;;;;;;;;;4.56;78.12;101307.34;5020281;27;19907;-69
2022/01/06 10:44:44;;;;;;;;;;;;;;;4.58;77.81;101306.31;5025883;27;19926;-69
2022/01/06 10:47:09;;;;;;;;;;;;;;;4.57;78.28;101304.63;5041716;27;20033;-69
2022/01/06 10:49:34;;;;;;;;;;;;;;;4.57;77.70;101303.75;5039147;27;19916;-70
2022/01/06 10:52:00;;;;;;;;;;;;;;;4.52;77.30;101295.31;5041772;27;19900;-69
2022/01/06 10:54:25;;;;;;;;;;;;;;;4.52;78.17;101297.94;5037458;27;19904;-70
2022/01/06 10:56:57;;;;;;;;;;;;;;;4.51;77.81;101310.19;5039477;27;19922;-70
2022/01/06 10:59:23;;;;;;;;;;;;;;;4.53;78.26;101305.72;5041974;27;19923;-70
2022/01/06 11:01:48;;;;;;;;;;;;;;;4.66;77.22;101303.28;5039463;27;20179;-69
2022/01/06 11:04:13;;;;;;;;;;;;;;;4.64;77.17;101305.97;5040924;27;20890;-69
2022/01/06 11:06:40;;;;;;;;;;;;;;;4.65;78.05;101296.31;5040697;27;20241;-70
2022/01/06 11:09:06;;;;;;;;;;;;;;;4.79;77.87;101296.44;5038265;27;20264;-70
2022/01/06 11:11:44;;;;;;;;;;;;;;;4.86;77.15;101293.44;5041465;27;19911;-69
2022/01/06 11:14:14;;;;;;;;;;;;;;;4.78;77.68;101294.72;5036620;27;19912;-70
2022/01/06 11:16:40;;;;;;;;;;;;;;;5.04;76.48;101295.03;5039086;27;20714;-69
2022/01/06 11:19:05;;;;;;;;;;;;;;;5.42;75.41;101299.84;5043048;27;19914;-68
2022/01/06 11:21:39;;;;;;;;;;;;;;;5.45;73.68;101306.69;5041607;27;19914;-70
2022/01/06 11:24:24;;;;;;;;;;;;;;;5.53;73.28;101303.63;5044608;27;20201;-70
2022/01/06 11:26:55;;;;;;;;;;;;;;;5.79;72.70;101292.41;5038718;27;20009;-70
2022/01/06 11:29:34;;;;;;;;;;;;;;;5.77;72.55;101309.22;5041988;27;19904;-70
2022/01/06 11:31:59;;;;;;;;;;;;;;;5.75;72.69;101304.03;5042150;27;19908;-70
2022/01/06 11:34:26;;;;;;;;;;;;;;;5.67;73.50;101306.28;5040605;27;19918;-69
2022/01/06 11:36:52;;;;;;;;;;;;;;;5.58;72.64;101306.81;5039537;27;19976;-70
2022/01/06 11:39:35;;;;;;;;;;;;;;;5.33;73.05;101314.34;5039461;27;20240;-70
2022/01/06 11:42:00;;;;;;;;;;;;;;;5.15;74.45;101311.00;5041255;27;19911;-69
2022/01/06 11:44:26;;;;;;;;;;;;;;;5.09;75.03;101311.38;5036916;28;19923;-69
2022/01/06 11:46:53;;;;;;;;;;;;;;;5.05;75.06;101309.84;5041508;27;20159;-69
2022/01/06 11:49:39;;;;;;;;;;;;;;;5.15;74.97;101308.38;5041165;27;20085;-68
2022/01/06 11:52:11;;;;;;;;;;;;;;;5.14;74.98;101311.94;5036879;27;19918;-69
2022/01/06 11:54:52;;;;;;;;;;;;;;;5.37;74.76;101307.13;5037534;28;19912;-69
2022/01/06 11:57:34;;;;;;;;;;;;;;;5.54;73.49;101302.69;5026464;27;19926;-69
2022/01/06 11:59:59;;;;;;;;;;;;;;;5.43;72.61;101304.16;5016887;28;19908;-70
2022/01/06 12:02:25;;;;;;;;;;;;;;;5.33;74.24;101303.03;5020471;28;19919;-69
2022/01/06 12:04:59;;;;;;;;;;;;;;;5.44;73.99;101294.50;5021171;27;20016;-70
2022/01/06 12:07:25;;;;;;;;;;;;;;;5.35;73.40;101309.00;5036414;27;19908;-69
2022/01/06 12:10:02;;;;;;;;;;;;;;;5.35;74.57;101295.88;5042800;27;20253;-70
2022/01/06 12:12:34;;;;;;;;;;;;;;;5.33;74.58;101308.28;5040279;27;19903;-70
2022/01/06 12:15:05;;;;;;;;;;;;;;;5.48;73.58;101309.13;5041606;28;19907;-69
2022/01/06 12:17:30;;;;;;;;;;;;;;;5.45;73.15;101301.44;5040562;27;20739;-70
2022/01/06 12:19:56;;;;;;;;;;;;;;;5.45;73.43;101297.03;5038614;28;19915;-69
2022/01/06 12:22:25;;;;;;;;;;;;;;;5.47;72.98;101296.94;5041082;27;19907;-69
2022/01/06 12:24:57;;;;;;;;;;;;;;;5.33;73.12;101303.84;5041795;27;20007;-69
2022/01/06 12:27:23;;;;;;;;;;;;;;;5.25;73.76;101300.81;5042757;27;19931;-68
2022/01/06 12:29:48;;;;;;;;;;;;;;;5.29;73.76;101301.50;5021534;28;20762;-68
2022/01/06 12:32:13;;;;;;;;;;;;;;;5.31;73.92;101299.63;5037310;27;20728;-69
2022/01/06 12:34:43;;;;;;;;;;;;;;;5.31;74.02;101304.88;5038256;28;19900;-69
2022/01/06 12:37:08;;;;;;;;;;;;;;;5.40;75.14;101301.72;5036999;27;19919;-69
2022/01/06 12:39:33;;;;;;;;;;;;;;;5.50;73.46;101295.00;5042098;27;19911;-70
2022/01/06 12:42:01;;;;;;;;;;;;;;;5.79;72.91;101297.66;5023188;27;19960;-70
2022/01/06 12:44:27;;;;;;;;;;;;;;;6.32;71.78;101291.91;5044229;27;19923;-70
2022/01/06 12:46:52;;;;;;;;;;;;;;;6.55;70.69;101297.50;5038813;27;20358;-69
2022/01/06 12:49:20;;;;;;;;;;;;;;;6.47;70.28;101284.81;5034420;27;19968;-70
2022/01/06 12:51:45;;;;;;;;;;;;;;;6.32;71.17;101292.72;5054223;27;19915;-71